Time;durP1;ratioP1;P1;durP2;ratioP2;P2;SDS_P1;SDS_P2;PMS_P1;PMS_P2;Temp;Humidity;BMP_temperature;BMP_pressure;BME280_temperature;BME280_humidity;BME280_pressure;Samples;Min_cycle;Max_cycle;Signal;HPM_P1;HPM_P2
2022/12/29 00:02:05;;;;;;;6.15;3.25;;;9.80;99.90;;;;;;4967134;28;20043;-66
2022/12/29 00:04:31;;;;;;;4.22;3.03;;;9.90;99.90;;;;;;4966558;28;20474;-66
2022/12/29 00:06:56;;;;;;;4.20;2.67;;;9.60;99.90;;;;;;4967043;28;20046;-66
2022/12/29 00:09:22;;;;;;;4.18;3.00;;;10.00;99.90;;;;;;4966916;28;20043;-66
2022/12/29 00:11:49;;;;;;;4.55;3.47;;;10.00;99.90;;;;;;4966426;28;20042;-66
2022/12/29 00:17:00;;;;;;;4.10;2.67;;;10.00;99.90;;;;;;4966987;28;20418;-66
2022/12/29 00:36:21;;;;;;;5.18;4.00;;;9.40;99.90;;;;;;4966599;28;20510;-66
2022/12/29 00:44:23;;;;;;;7.05;5.65;;;9.70;99.90;;;;;;4965652;28;20054;-66
2022/12/29 00:46:49;;;;;;;6.60;4.82;;;10.00;99.90;;;;;;4965846;28;20047;-66
2022/12/29 00:49:30;;;;;;;6.38;5.47;;;9.80;99.90;;;;;;4965488;28;20089;-66
2022/12/29 00:52:01;;;;;;;4.95;3.80;;;9.90;99.90;;;;;;4969031;28;20122;-66
2022/12/29 00:54:33;;;;;;;6.05;4.63;;;9.50;99.90;;;;;;4968467;28;20058;-66
2022/12/29 00:56:59;;;;;;;5.65;3.58;;;10.10;99.90;;;;;;4970594;28;20130;-66
2022/12/29 00:59:25;;;;;;;4.50;3.70;;;9.90;99.90;;;;;;4969383;28;20138;-66
2022/12/29 01:01:52;;;;;;;5.50;4.75;;;10.00;99.90;;;;;;4968157;28;20133;-66
2022/12/29 01:04:20;;;;;;;3.58;2.65;;;9.60;99.90;;;;;;4969291;28;20039;-66
2022/12/29 01:06:46;;;;;;;4.97;3.75;;;9.70;99.90;;;;;;4969541;28;20047;-66
2022/12/29 01:11:56;;;;;;;6.30;5.30;;;9.90;99.90;;;;;;4969655;28;20049;-66
2022/12/29 01:14:22;;;;;;;5.47;4.75;;;9.60;99.90;;;;;;4967399;28;20067;-66
2022/12/29 01:16:48;;;;;;;4.93;3.90;;;10.10;99.90;;;;;;4969140;28;20070;-66
2022/12/29 01:19:15;;;;;;;6.00;4.90;;;10.20;99.90;;;;;;4969423;28;20779;-66
2022/12/29 01:21:41;;;;;;;7.50;4.43;;;9.90;99.90;;;;;;4973642;28;20125;-66
2022/12/29 01:24:07;;;;;;;4.78;3.35;;;10.30;99.90;;;;;;4969184;28;20101;-66
2022/12/29 01:26:33;;;;;;;5.30;4.32;;;10.00;99.90;;;;;;4987399;28;20042;-65
2022/12/29 01:28:58;;;;;;;5.72;3.47;;;9.80;99.90;;;;;;4986657;28;20104;-66
2022/12/29 01:31:24;;;;;;;5.22;3.85;;;10.30;99.90;;;;;;4988727;28;20414;-66
2022/12/29 01:33:50;;;;;;;7.13;4.28;;;10.00;99.90;;;;;;4988642;28;20042;-66
2022/12/29 01:36:17;;;;;;;3.60;2.45;;;9.80;99.90;;;;;;4987525;28;20046;-66
2022/12/29 01:38:44;;;;;;;5.07;3.30;;;10.00;99.90;;;;;;4988878;28;20043;-67
2022/12/29 01:41:11;;;;;;;4.53;3.15;;;10.00;99.90;;;;;;4988781;28;20057;-66
2022/12/29 01:43:51;;;;;;;6.05;4.40;;;10.20;99.90;;;;;;4987945;28;20653;-66
2022/12/29 01:46:38;;;;;;;4.70;3.72;;;10.20;99.90;;;;;;4987165;28;20045;-66
2022/12/29 01:49:26;;;;;;;5.78;3.90;;;10.00;99.90;;;;;;4988787;28;20038;-66
2022/12/29 01:52:01;;;;;;;4.68;3.10;;;9.90;99.90;;;;;;4986840;28;20462;-66
2022/12/29 01:54:33;;;;;;;6.20;3.42;;;10.30;99.90;;;;;;4988309;28;20054;-66
2022/12/29 01:57:03;;;;;;;5.25;3.72;;;9.90;99.90;;;;;;4988369;28;20035;-66
2022/12/29 01:59:37;;;;;;;3.80;2.33;;;10.30;99.90;;;;;;4988097;28;20474;-65
2022/12/29 02:02:04;;;;;;;4.45;2.70;;;10.30;99.90;;;;;;4988117;28;20116;-66
2022/12/29 02:04:32;;;;;;;5.13;2.85;;;10.00;99.90;;;;;;4987905;28;20057;-66
2022/12/29 02:07:02;;;;;;;5.78;3.50;;;10.30;99.90;;;;;;4988271;28;20627;-66
2022/12/29 02:09:28;;;;;;;5.32;2.65;;;10.20;99.90;;;;;;4988444;28;20038;-66
2022/12/29 02:11:54;;;;;;;3.22;2.45;;;10.30;99.90;;;;;;4987745;28;20038;-66
2022/12/29 02:14:20;;;;;;;3.55;2.65;;;10.30;99.90;;;;;;4986950;28;20089;-65
2022/12/29 02:17:07;;;;;;;3.65;2.38;;;10.30;99.90;;;;;;4988059;28;20096;-67
2022/12/29 02:20:01;;;;;;;5.70;2.55;;;10.20;99.90;;;;;;4995852;28;20050;-66
2022/12/29 02:22:32;;;;;;;3.95;2.90;;;10.50;99.90;;;;;;4952519;28;20734;-66
2022/12/29 02:25:19;;;;;;;3.75;2.58;;;10.20;99.90;;;;;;4987864;28;20042;-66
2022/12/29 02:28:03;;;;;;;4.68;3.50;;;10.50;99.90;;;;;;4987029;28;20146;-66
2022/12/29 02:30:43;;;;;;;2.80;1.75;;;10.20;99.90;;;;;;4987880;28;20077;-65
2022/12/29 02:33:25;;;;;;;3.00;2.35;;;10.50;99.90;;;;;;4987475;28;20405;-66
2022/12/29 02:36:19;;;;;;;3.80;2.70;;;10.50;99.90;;;;;;4987507;28;20069;-65
2022/12/29 02:38:52;;;;;;;3.17;1.98;;;10.40;99.90;;;;;;4988113;28;20097;-66
2022/12/29 02:41:49;;;;;;;4.13;2.95;;;10.50;99.90;;;;;;4987469;28;20054;-66
2022/12/29 02:44:38;;;;;;;6.28;3.40;;;10.30;99.90;;;;;;4985723;28;20120;-65
2022/12/29 02:47:15;;;;;;;3.75;2.50;;;10.40;99.90;;;;;;4987255;28;20089;-66
2022/12/29 02:49:53;;;;;;;5.18;2.38;;;10.40;99.90;;;;;;4987530;28;20050;-66
2022/12/29 02:52:28;;;;;;;3.80;2.22;;;10.60;99.90;;;;;;4986707;28;20050;-66
2022/12/29 02:54:54;;;;;;;4.28;2.38;;;10.30;99.90;;;;;;4986160;28;20061;-66
2022/12/29 02:57:22;;;;;;;4.88;2.30;;;10.50;99.90;;;;;;4986538;28;20054;-67
2022/12/29 03:00:04;;;;;;;3.25;2.08;;;10.40;99.90;;;;;;4985204;28;20397;-68
2022/12/29 03:02:54;;;;;;;4.53;2.50;;;10.40;99.90;;;;;;4986973;28;20045;-66
2022/12/29 03:05:53;;;;;;;6.72;2.50;;;10.20;99.90;;;;;;4985144;28;20054;-66
2022/12/29 03:08:38;;;;;;;4.20;2.97;;;10.50;99.90;;;;;;4985458;28;20362;-68
2022/12/29 03:12:07;;;;;;;;;;;10.20;99.90;;;;;;4985372;28;20046;-66
2022/12/29 03:16:57;;;;;;;3.10;1.80;;;10.20;99.90;;;;;;4986726;28;20058;-66
2022/12/29 03:19:28;;;;;;;3.42;1.70;;;10.50;99.90;;;;;;4986756;28;20042;-66
2022/12/29 03:24:49;;;;;;;3.00;2.10;;;10.40;99.90;;;;;;4967667;28;20142;-66
2022/12/29 03:27:21;;;;;;;4.63;2.00;;;10.60;99.90;;;;;;4966383;28;20042;-66
2022/12/29 03:29:54;;;;;;;3.20;1.50;;;10.20;99.90;;;;;;4966637;28;20170;-66
2022/12/29 03:32:28;;;;;;;2.88;1.63;;;10.50;99.90;;;;;;4967227;28;20406;-67
2022/12/29 03:34:55;;;;;;;3.88;1.77;;;10.50;99.90;;;;;;4966872;28;20046;-66
2022/12/29 03:37:26;;;;;;;3.25;1.67;;;10.30;99.90;;;;;;4966023;28;20058;-67
2022/12/29 03:39:51;;;;;;;2.38;1.65;;;10.60;99.90;;;;;;4966631;28;20137;-66
2022/12/29 03:42:21;;;;;;;3.45;1.60;;;10.30;99.90;;;;;;4966657;28;20074;-66
2022/12/29 03:44:47;;;;;;;2.55;1.35;;;10.30;99.90;;;;;;4967329;28;20433;-66
2022/12/29 03:47:14;;;;;;;3.00;1.77;;;10.40;99.90;;;;;;4967348;28;20463;-66
2022/12/29 03:49:40;;;;;;;3.05;1.92;;;10.50;99.90;;;;;;4966829;28;20437;-65
2022/12/29 03:52:06;;;;;;;3.10;1.67;;;10.40;99.90;;;;;;4967022;28;20046;-66
2022/12/29 03:54:32;;;;;;;3.08;1.70;;;10.50;99.90;;;;;;4966926;28;20053;-65
2022/12/29 03:56:58;;;;;;;2.70;1.50;;;10.40;99.90;;;;;;4965934;28;20517;-66
2022/12/29 03:59:23;;;;;;;2.13;1.27;;;10.50;99.90;;;;;;4966899;28;20469;-66
2022/12/29 04:01:49;;;;;;;2.72;1.52;;;10.40;99.90;;;;;;4967583;28;20122;-65
2022/12/29 04:04:15;;;;;;;3.13;1.60;;;10.20;99.90;;;;;;4966410;28;20458;-66
2022/12/29 04:06:41;;;;;;;3.10;1.10;;;10.40;99.90;;;;;;4965456;28;20050;-66
2022/12/29 04:09:07;;;;;;;3.63;1.48;;;10.30;99.90;;;;;;4966729;28;20050;-66
2022/12/29 04:11:32;;;;;;;3.45;1.70;;;10.20;99.90;;;;;;4965650;28;20405;-66
2022/12/29 04:13:58;;;;;;;2.75;1.67;;;10.50;99.90;;;;;;4964135;28;20113;-66
2022/12/29 04:16:24;;;;;;;2.88;1.20;;;10.40;99.90;;;;;;4966655;28;20051;-66
2022/12/29 04:18:49;;;;;;;2.55;1.30;;;10.30;99.90;;;;;;4967182;28;20454;-66
2022/12/29 04:21:15;;;;;;;2.55;1.30;;;10.30;99.90;;;;;;4971574;28;20069;-66
2022/12/29 04:23:41;;;;;;;3.35;1.30;;;10.40;99.90;;;;;;4972600;28;20042;-65
2022/12/29 04:26:08;;;;;;;3.35;1.40;;;10.50;99.90;;;;;;4967239;28;20130;-66
2022/12/29 04:28:35;;;;;;;3.60;1.17;;;10.40;99.90;;;;;;4969830;28;20054;-68
2022/12/29 04:31:02;;;;;;;4.65;1.48;;;10.40;99.90;;;;;;4969002;28;20047;-65
2022/12/29 04:33:27;;;;;;;2.42;0.90;;;10.50;99.90;;;;;;4970965;28;20385;-66
2022/12/29 04:35:53;;;;;;;2.83;1.50;;;10.40;99.90;;;;;;4970860;28;20094;-66
2022/12/29 04:38:20;;;;;;;4.28;1.15;;;10.40;99.90;;;;;;4970120;28;20074;-66
2022/12/29 04:40:46;;;;;;;4.40;1.73;;;10.40;99.90;;;;;;4970228;28;20137;-65
2022/12/29 04:43:13;;;;;;;3.45;1.50;;;10.30;99.90;;;;;;4969627;28;20138;-65
2022/12/29 04:45:43;;;;;;;3.95;1.20;;;10.30;99.90;;;;;;4970141;28;20054;-65
2022/12/29 04:48:09;;;;;;;4.47;1.13;;;10.30;99.90;;;;;;4970697;28;20047;-65
2022/12/29 04:50:34;;;;;;;3.88;0.95;;;10.30;99.90;;;;;;4970031;28;20538;-65
2022/12/29 04:53:00;;;;;;;3.28;1.08;;;10.30;99.90;;;;;;4970363;28;20046;-65
2022/12/29 04:55:26;;;;;;;2.13;0.70;;;10.30;99.90;;;;;;4969612;28;20055;-66
2022/12/29 04:57:52;;;;;;;2.83;0.70;;;10.40;99.90;;;;;;4969665;28;20061;-66
2022/12/29 05:00:18;;;;;;;2.70;0.70;;;10.30;99.90;;;;;;4970199;28;20042;-66
2022/12/29 05:02:44;;;;;;;3.75;0.70;;;10.10;99.90;;;;;;4969890;28;20054;-66
2022/12/29 05:05:09;;;;;;;2.05;0.88;;;10.10;99.90;;;;;;4970433;28;20410;-66
2022/12/29 05:07:35;;;;;;;3.15;0.90;;;10.20;99.90;;;;;;4970215;28;20043;-66
2022/12/29 05:10:01;;;;;;;2.63;0.73;;;10.10;99.90;;;;;;4984637;28;20042;-66
2022/12/29 05:12:30;;;;;;;4.70;1.08;;;10.00;99.90;;;;;;4968762;28;20513;-66
2022/12/29 05:14:56;;;;;;;6.07;0.90;;;10.00;99.90;;;;;;4969817;28;20453;-67
2022/12/29 05:17:21;;;;;;;2.05;0.80;;;10.00;99.90;;;;;;4970230;28;20078;-66
2022/12/29 05:19:47;;;;;;;3.90;1.10;;;9.90;99.90;;;;;;4969147;28;20141;-66
2022/12/29 05:22:14;;;;;;;2.70;0.80;;;10.00;99.90;;;;;;4980786;28;20049;-66
2022/12/29 05:24:40;;;;;;;5.68;1.30;;;9.90;99.90;;;;;;4969540;28;20129;-66
2022/12/29 05:27:05;;;;;;;4.53;1.10;;;9.90;99.90;;;;;;4968292;28;20129;-65
2022/12/29 05:29:31;;;;;;;7.43;1.65;;;9.90;99.90;;;;;;4969927;28;20596;-66
2022/12/29 05:31:57;;;;;;;4.05;1.17;;;9.90;99.90;;;;;;4969851;28;20039;-67
2022/12/29 05:34:22;;;;;;;4.32;1.30;;;9.80;99.90;;;;;;4969608;28;20085;-65
2022/12/29 05:36:48;;;;;;;4.18;1.40;;;9.80;99.90;;;;;;4968155;28;20050;-66
2022/12/29 05:39:14;;;;;;;8.95;1.35;;;9.90;99.90;;;;;;4969377;28;20042;-65
2022/12/29 05:41:39;;;;;;;3.80;1.40;;;9.80;99.90;;;;;;4968663;28;20050;-65
2022/12/29 05:44:05;;;;;;;4.15;1.15;;;9.80;99.90;;;;;;4968980;28;20046;-65
2022/12/29 05:46:31;;;;;;;8.15;1.25;;;9.60;99.90;;;;;;4969205;28;20118;-66
2022/12/29 05:48:57;;;;;;;4.68;1.52;;;9.80;99.90;;;;;;4969724;28;20047;-65
2022/12/29 05:51:23;;;;;;;5.47;1.30;;;9.60;99.90;;;;;;4983762;28;20042;-66
2022/12/29 05:53:48;;;;;;;3.38;1.17;;;9.80;99.90;;;;;;4988680;28;20069;-66
2022/12/29 05:56:14;;;;;;;6.90;1.85;;;9.70;99.90;;;;;;4988575;28;20470;-66
2022/12/29 05:58:40;;;;;;;6.25;1.45;;;9.70;99.90;;;;;;4987878;28;20050;-66
2022/12/29 06:01:06;;;;;;;7.40;1.70;;;9.60;99.90;;;;;;4970273;28;20050;-66
2022/12/29 06:03:32;;;;;;;7.50;1.50;;;9.50;99.90;;;;;;4988631;28;20034;-66
2022/12/29 06:05:58;;;;;;;6.05;1.52;;;9.50;99.90;;;;;;4987326;28;20054;-65
2022/12/29 06:08:23;;;;;;;3.55;1.20;;;9.50;99.90;;;;;;4988173;28;20054;-66
2022/12/29 06:10:50;;;;;;;4.53;1.20;;;9.60;99.90;;;;;;4987996;28;20540;-66
2022/12/29 06:13:16;;;;;;;7.32;1.50;;;9.50;99.90;;;;;;4987442;28;20047;-66
2022/12/29 06:15:41;;;;;;;8.57;1.50;;;9.50;99.90;;;;;;4988132;28;20054;-65
2022/12/29 06:18:07;;;;;;;4.25;1.05;;;9.40;99.90;;;;;;4969997;28;20046;-65
2022/12/29 06:20:33;;;;;;;7.13;1.15;;;9.50;99.90;;;;;;4984881;28;20381;-66
2022/12/29 06:22:58;;;;;;;7.22;1.60;;;9.60;99.90;;;;;;4977829;28;20066;-65
2022/12/29 06:25:24;;;;;;;7.30;1.75;;;9.50;99.90;;;;;;4968252;28;20057;-66
2022/12/29 06:27:50;;;;;;;5.85;1.10;;;9.70;99.90;;;;;;4968246;28;20038;-65
2022/12/29 06:30:16;;;;;;;7.63;1.48;;;9.60;99.90;;;;;;4968622;28;20041;-65
2022/12/29 06:32:42;;;;;;;6.18;1.23;;;9.60;99.90;;;;;;4968732;28;20617;-65
2022/12/29 06:35:08;;;;;;;4.53;1.30;;;9.60;99.90;;;;;;4967970;28;20045;-65
2022/12/29 06:37:34;;;;;;;5.35;1.25;;;9.60;99.90;;;;;;4968041;28;20053;-66
2022/12/29 06:40:00;;;;;;;7.38;1.20;;;9.70;99.90;;;;;;4968413;28;20051;-65
2022/12/29 06:42:25;;;;;;;9.65;2.00;;;9.60;99.90;;;;;;4967657;28;20096;-65
2022/12/29 06:44:52;;;;;;;7.10;1.58;;;9.70;99.90;;;;;;4968668;28;20051;-66
2022/12/29 06:47:18;;;;;;;4.30;1.17;;;9.60;99.90;;;;;;4968022;28;20045;-66
2022/12/29 06:49:44;;;;;;;7.55;1.55;;;9.60;99.90;;;;;;4965530;28;20508;-66
2022/12/29 06:52:09;;;;;;;7.45;1.63;;;9.60;99.90;;;;;;4967363;28;20035;-66
2022/12/29 06:54:35;;;;;;;7.85;1.90;;;9.60;99.90;;;;;;4967803;28;20046;-66
2022/12/29 06:57:01;;;;;;;9.65;1.58;;;9.70;99.90;;;;;;4967348;28;20552;-66
2022/12/29 06:59:26;;;;;;;5.63;1.38;;;9.60;99.90;;;;;;4966557;28;20058;-66
2022/12/29 07:01:52;;;;;;;4.05;1.13;;;9.60;99.90;;;;;;4967838;28;20042;-65
2022/12/29 07:04:18;;;;;;;7.43;1.42;;;9.60;99.90;;;;;;4967900;28;20211;-66
2022/12/29 07:06:44;;;;;;;12.50;1.73;;;9.60;99.90;;;;;;4966963;28;20046;-66
2022/12/29 07:09:10;;;;;;;7.55;1.35;;;9.60;99.90;;;;;;4965643;28;20086;-66
2022/12/29 07:11:36;;;;;;;5.68;1.52;;;9.60;99.90;;;;;;4966225;28;20047;-66
2022/12/29 07:14:02;;;;;;;8.60;1.83;;;9.50;99.90;;;;;;4965746;28;20150;-66
2022/12/29 07:16:29;;;;;;;2.90;0.93;;;9.50;99.90;;;;;;4967123;28;20050;-65
2022/12/29 07:18:56;;;;;;;6.35;1.58;;;9.50;99.90;;;;;;4966851;28;20097;-65
2022/12/29 07:21:22;;;;;;;10.52;1.88;;;9.50;99.90;;;;;;4971770;28;20062;-66
2022/12/29 07:23:48;;;;;;;6.18;1.50;;;9.40;99.90;;;;;;4981110;28;20477;-65
2022/12/29 07:26:17;;;;;;;8.13;1.65;;;9.40;99.90;;;;;;4984070;28;20046;-66
2022/12/29 07:28:43;;;;;;;9.05;2.15;;;9.40;99.90;;;;;;4984684;28;20129;-60
2022/12/29 07:31:20;;;;;;;8.52;1.70;;;9.50;99.90;;;;;;4985566;28;20046;-66
2022/12/29 07:33:47;;;;;;;8.73;1.50;;;9.50;99.90;;;;;;4986818;28;20050;-66
2022/12/29 07:36:14;;;;;;;6.25;1.60;;;9.50;99.90;;;;;;4985316;28;20077;-65
2022/12/29 07:38:40;;;;;;;7.00;1.95;;;9.40;99.90;;;;;;4985630;28;20049;-66
2022/12/29 07:41:06;;;;;;;7.53;1.45;;;9.50;99.90;;;;;;4986174;28;20130;-67
2022/12/29 07:43:32;;;;;;;6.05;1.30;;;9.50;99.90;;;;;;4986019;28;20166;-66
2022/12/29 07:45:57;;;;;;;7.15;1.70;;;9.40;99.90;;;;;;4986736;28;20363;-66
2022/12/29 07:48:23;;;;;;;9.73;1.83;;;9.40;99.90;;;;;;4985791;28;20121;-66
2022/12/29 07:50:49;;;;;;;7.88;1.52;;;9.40;99.90;;;;;;4985045;28;20054;-66
2022/12/29 07:53:14;;;;;;;8.05;1.85;;;9.60;99.90;;;;;;4986101;28;20094;-66
2022/12/29 07:55:40;;;;;;;8.23;1.80;;;9.50;99.90;;;;;;4983899;28;20046;-66
2022/12/29 07:58:06;;;;;;;10.30;1.75;;;9.50;99.90;;;;;;4985208;28;20046;-66
2022/12/29 08:00:32;;;;;;;7.18;1.70;;;9.60;99.90;;;;;;4984580;28;20599;-66
2022/12/29 08:02:58;;;;;;;6.90;1.80;;;9.50;99.90;;;;;;4985063;28;20038;-66
2022/12/29 08:05:23;;;;;;;10.88;2.58;;;9.60;99.90;;;;;;4985974;28;20054;-65
2022/12/29 08:07:49;;;;;;;7.03;1.63;;;9.60;99.90;;;;;;4986184;28;20038;-66
2022/12/29 08:10:15;;;;;;;5.47;1.50;;;9.60;99.90;;;;;;4985650;28;20038;-66
2022/12/29 08:12:42;;;;;;;10.10;2.05;;;9.60;99.90;;;;;;4984766;28;20097;-66
2022/12/29 08:15:09;;;;;;;10.32;1.88;;;9.70;99.90;;;;;;4985936;28;20096;-66
2022/12/29 08:17:35;;;;;;;9.02;2.13;;;9.70;99.90;;;;;;4986306;28;20081;-66
2022/12/29 08:20:01;;;;;;;8.00;1.65;;;9.70;99.90;;;;;;4984005;28;20053;-68
2022/12/29 08:22:26;;;;;;;8.82;1.80;;;9.70;99.90;;;;;;4976621;28;20050;-66
2022/12/29 08:24:52;;;;;;;10.63;1.83;;;9.60;99.90;;;;;;4966420;28;20116;-66
2022/12/29 08:27:18;;;;;;;7.97;1.60;;;9.70;99.90;;;;;;4965347;28;20039;-66
2022/12/29 08:29:44;;;;;;;7.95;1.75;;;9.60;99.90;;;;;;4980933;28;20053;-66
2022/12/29 08:32:10;;;;;;;7.47;1.80;;;9.70;99.90;;;;;;4966395;28;20047;-66
2022/12/29 08:34:36;;;;;;;8.25;1.48;;;9.60;99.90;;;;;;4966625;28;20050;-66
2022/12/29 08:37:01;;;;;;;6.93;1.52;;;9.60;99.90;;;;;;4966314;28;20046;-65
2022/12/29 08:39:27;;;;;;;6.07;1.55;;;9.60;99.90;;;;;;4965024;28;20105;-66
2022/12/29 08:41:53;;;;;;;11.65;1.92;;;9.70;99.90;;;;;;4965582;28;20105;-65
2022/12/29 08:44:19;;;;;;;10.15;2.03;;;9.70;99.90;;;;;;4966513;28;20139;-66
2022/12/29 08:46:44;;;;;;;12.05;1.88;;;9.70;99.90;;;;;;4966009;28;20039;-66
2022/12/29 08:49:10;;;;;;;9.98;2.10;;;9.70;99.90;;;;;;4966865;28;20072;-66
2022/12/29 08:51:35;;;;;;;15.15;2.33;;;9.70;99.90;;;;;;4966891;28;20042;-65
2022/12/29 08:54:01;;;;;;;10.43;2.33;;;9.80;99.90;;;;;;4966336;28;20344;-66
2022/12/29 08:56:27;;;;;;;10.50;2.05;;;9.70;99.90;;;;;;4965802;28;20034;-66
2022/12/29 08:58:53;;;;;;;16.45;3.10;;;9.80;99.90;;;;;;4966042;28;20078;-65
2022/12/29 09:01:19;;;;;;;14.55;3.28;;;9.70;99.90;;;;;;4966015;28;20101;-66
2022/12/29 09:03:46;;;;;;;10.52;2.13;;;9.80;99.90;;;;;;4965821;28;20042;-66
2022/12/29 09:06:12;;;;;;;9.80;2.08;;;9.70;99.90;;;;;;4966451;28;20035;-66
2022/12/29 09:08:38;;;;;;;11.70;2.42;;;9.70;99.90;;;;;;4966660;28;20043;-66
2022/12/29 09:11:15;;;;;;;11.38;2.70;;;9.80;99.90;;;;;;4965014;28;20085;-66
2022/12/29 09:13:41;;;;;;;13.30;2.10;;;9.80;99.90;;;;;;4969323;28;20062;-66
2022/12/29 09:16:07;;;;;;;9.57;2.20;;;9.90;99.90;;;;;;4970027;28;20047;-66
2022/12/29 09:18:33;;;;;;;11.02;2.13;;;9.90;99.90;;;;;;4969481;28;20092;-66
2022/12/29 09:21:01;;;;;;;14.18;2.60;;;9.80;99.90;;;;;;4972805;28;20073;-65
2022/12/29 09:23:27;;;;;;;9.70;2.05;;;9.80;99.90;;;;;;4975326;28;20077;-67
2022/12/29 09:25:53;;;;;;;8.90;2.35;;;9.90;99.90;;;;;;5000339;28;20061;-67
2022/12/29 09:28:19;;;;;;;10.20;1.75;;;9.80;99.90;;;;;;5000892;28;20053;-66
2022/12/29 09:30:45;;;;;;;7.55;1.77;;;9.80;99.90;;;;;;4987060;28;20137;-66
2022/12/29 09:33:11;;;;;;;7.32;1.70;;;9.80;99.90;;;;;;4987916;28;20050;-66
2022/12/29 09:35:37;;;;;;;10.15;2.10;;;9.80;99.90;;;;;;4988352;28;20049;-66
2022/12/29 09:38:02;;;;;;;7.45;1.63;;;9.70;99.90;;;;;;4987637;28;20069;-65
2022/12/29 09:40:33;;;;;;;10.18;1.60;;;9.60;99.90;;;;;;4987491;28;20113;-66
2022/12/29 09:43:12;;;;;;;14.82;2.22;;;9.50;99.90;;;;;;4986558;28;20129;-66
2022/12/29 09:45:52;;;;;;;9.43;2.03;;;9.40;99.90;;;;;;4986768;28;20050;-66
2022/12/29 09:48:23;;;;;;;10.57;2.35;;;9.40;99.90;;;;;;4986374;28;20622;-67
2022/12/29 09:51:03;;;;;;;9.30;2.22;;;9.40;99.90;;;;;;4987451;28;20076;-67
2022/12/29 09:53:37;;;;;;;10.68;2.50;;;9.30;99.90;;;;;;4986773;28;20065;-66
2022/12/29 09:56:05;;;;;;;7.95;1.75;;;9.30;99.90;;;;;;4985124;28;20081;-66
2022/12/29 09:58:44;;;;;;;8.98;2.15;;;9.30;99.90;;;;;;4969691;28;20053;-66
2022/12/29 10:01:50;;;;;;;6.38;1.73;;;9.30;99.90;;;;;;4986959;28;20121;-66
2022/12/29 10:04:15;;;;;;;9.20;1.88;;;9.40;99.90;;;;;;4949174;28;20062;-66
2022/12/29 10:07:03;;;;;;;11.30;2.58;;;9.30;99.90;;;;;;4987347;28;20043;-67
2022/12/29 10:09:47;;;;;;;8.18;1.83;;;9.40;99.90;;;;;;4985987;28;20089;-66
2022/12/29 10:12:22;;;;;;;12.95;2.55;;;9.30;99.90;;;;;;4985456;28;20044;-66
2022/12/29 10:14:50;;;;;;;;;;;9.40;99.90;;;;;;4986169;28;20448;-67
2022/12/29 10:17:16;;;;;;;7.15;1.55;;;9.30;99.90;;;;;;4987459;28;20354;-66
2022/12/29 10:19:47;;;;;;;12.50;2.47;;;9.30;99.90;;;;;;4987418;28;20081;-66
2022/12/29 10:22:22;;;;;;;10.73;2.17;;;9.30;99.90;;;;;;4978097;28;20047;-66
2022/12/29 10:24:50;;;;;;;10.43;2.35;;;9.20;99.90;;;;;;4967776;28;20047;-66
2022/12/29 10:27:17;;;;;;;10.73;1.98;;;9.20;99.90;;;;;;4966981;28;20054;-66
2022/12/29 10:29:50;;;;;;;9.30;1.65;;;9.20;99.90;;;;;;4967898;28;20398;-66
2022/12/29 10:32:34;;;;;;;8.82;1.98;;;9.20;99.90;;;;;;4967795;28;20042;-66
2022/12/29 10:35:06;;;;;;;11.40;1.70;;;9.20;99.90;;;;;;4983815;28;20053;-66
2022/12/29 10:37:44;;;;;;;11.38;2.20;;;9.20;99.90;;;;;;4987502;28;20665;-67
2022/12/29 10:40:45;;;;;;;6.47;1.42;;;9.10;99.90;;;;;;4987292;28;20046;-67
2022/12/29 10:43:27;;;;;;;7.50;1.70;;;9.10;99.90;;;;;;4973559;28;20066;-67
2022/12/29 10:45:56;;;;;;;7.45;1.80;;;9.10;99.90;;;;;;4986419;28;20401;-67
2022/12/29 10:48:27;;;;;;;6.90;1.67;;;9.10;99.90;;;;;;4986658;28;20359;-67
2022/12/29 10:50:56;;;;;;;10.43;2.70;;;9.00;99.90;;;;;;4986425;28;20046;-67
2022/12/29 10:53:27;;;;;;;9.68;2.80;;;8.80;99.90;;;;;;4986395;28;20691;-67
2022/12/29 10:55:54;;;;;;;9.82;2.50;;;8.90;99.90;;;;;;4984915;28;20050;-67
2022/12/29 10:58:21;;;;;;;13.18;2.67;;;8.80;99.90;;;;;;4986415;28;20039;-68
2022/12/29 11:00:53;;;;;;;12.23;2.85;;;8.70;99.90;;;;;;4984827;28;20057;-67
2022/12/29 11:03:45;;;;;;;7.97;2.22;;;8.60;99.90;;;;;;4986539;28;20050;-67
2022/12/29 11:06:29;;;;;;;10.27;3.08;;;8.60;99.90;;;;;;4986709;28;20453;-67
2022/12/29 11:08:59;;;;;;;8.77;2.38;;;8.50;99.90;;;;;;4986343;28;20121;-69
2022/12/29 11:11:31;;;;;;;9.60;2.08;;;8.80;99.90;;;;;;4985629;28;20693;-66
2022/12/29 11:14:12;;;;;;;12.52;2.90;;;8.60;99.90;;;;;;4986781;28;20054;-66
2022/12/29 11:16:38;;;;;;;9.85;3.03;;;8.90;99.90;;;;;;4986285;28;20462;-67
2022/12/29 11:19:04;;;;;;;7.18;1.70;;;8.80;99.90;;;;;;4984855;28;20081;-67
2022/12/29 11:21:30;;;;;;;8.68;1.88;;;8.70;99.90;;;;;;4980314;28;20141;-67
2022/12/29 11:24:02;;;;;;;9.13;2.00;;;8.90;99.90;;;;;;4968376;28;20039;-68
2022/12/29 11:26:30;;;;;;;12.88;2.20;;;8.70;99.90;;;;;;4966553;28;20055;-68
2022/12/29 11:29:08;;;;;;;8.88;1.85;;;8.50;99.90;;;;;;4967161;28;20045;-68
2022/12/29 11:32:09;;;;;;;6.63;1.50;;;8.60;99.90;;;;;;4966688;28;20101;-67
2022/12/29 11:34:35;;;;;;;9.00;2.05;;;8.60;99.90;;;;;;4966223;28;20454;-67
2022/12/29 11:37:15;;;;;;;10.23;2.53;;;8.80;99.90;;;;;;4965763;28;20058;-67
2022/12/29 11:40:18;;;;;;;9.93;2.05;;;8.90;99.90;;;;;;4966923;28;20533;-67
2022/12/29 11:42:46;;;;;;;9.52;2.40;;;8.60;99.90;;;;;;4965987;28;20126;-68
2022/12/29 11:45:20;;;;;;;11.55;3.22;;;8.80;99.90;;;;;;4954601;28;20054;-67
2022/12/29 11:47:59;;;;;;;8.48;2.28;;;8.90;99.90;;;;;;4985335;28;20043;-68
2022/12/29 11:50:31;;;;;;;8.30;2.10;;;9.00;99.90;;;;;;4981658;28;20057;-67
2022/12/29 11:53:14;;;;;;;11.05;2.67;;;9.50;99.90;;;;;;4981873;28;20042;-67
2022/12/29 11:55:49;;;;;;;10.18;2.50;;;9.80;99.90;;;;;;4983301;28;20129;-67
2022/12/29 11:58:16;;;;;;;9.32;2.42;;;9.80;99.90;;;;;;4983723;28;20129;-68
2022/12/29 12:00:44;;;;;;;9.75;2.28;;;9.70;99.90;;;;;;4985385;28;20432;-67
2022/12/29 12:03:24;;;;;;;8.07;2.10;;;9.60;99.90;;;;;;4983854;28;20043;-67
2022/12/29 12:06:01;;;;;;;10.20;2.58;;;9.70;99.90;;;;;;4984374;28;20050;-68
2022/12/29 12:08:41;;;;;;;11.68;2.42;;;9.80;99.90;;;;;;4983632;28;20054;-67
2022/12/29 12:11:36;;;;;;;15.95;2.80;;;9.60;99.90;;;;;;4983425;28;20119;-67
2022/12/29 12:14:26;;;;;;;10.73;2.05;;;9.90;99.90;;;;;;4984749;28;20437;-66
2022/12/29 12:16:59;;;;;;;14.32;2.78;;;10.00;99.90;;;;;;4985367;28;20088;-68
2022/12/29 12:19:41;;;;;;;15.90;3.33;;;9.80;99.90;;;;;;4983413;28;20047;-67
2022/12/29 12:22:37;;;;;;;18.05;3.45;;;9.80;99.90;;;;;;4977614;28;20053;-66
2022/12/29 12:25:18;;;;;;;14.20;3.03;;;9.70;99.90;;;;;;4965526;28;20053;-67
2022/12/29 12:28:00;;;;;;;18.98;4.03;;;9.60;99.90;;;;;;4964701;28;20126;-67
2022/12/29 12:30:33;;;;;;;14.32;2.72;;;9.40;99.90;;;;;;4965282;28;20389;-67
2022/12/29 12:33:04;;;;;;;17.52;3.78;;;9.50;99.90;;;;;;4965512;28;20476;-67
2022/12/29 12:36:11;;;;;;;14.35;2.83;;;9.40;99.90;;;;;;4965786;28;20422;-67
2022/12/29 12:38:49;;;;;;;13.15;2.53;;;9.40;99.90;;;;;;4963586;28;20102;-67
2022/12/29 12:41:47;;;;;;;10.13;2.30;;;9.20;99.90;;;;;;4965013;28;20051;-68
2022/12/29 12:44:19;;;;;;;13.02;3.13;;;9.40;99.90;;;;;;4964017;28;20055;-66
2022/12/29 12:47:03;;;;;;;19.23;3.42;;;9.20;99.90;;;;;;4966218;28;20069;-68
2022/12/29 12:49:46;;;;;;;18.17;3.33;;;9.30;99.90;;;;;;4968874;28;20050;-66
2022/12/29 12:52:36;;;;;;;17.27;3.17;;;9.30;99.90;;;;;;4969508;28;20437;-66
2022/12/29 12:55:35;;;;;;;16.08;3.90;;;9.60;99.90;;;;;;4968327;28;20047;-66
2022/12/29 12:58:19;;;;;;;14.40;3.03;;;9.70;99.90;;;;;;4968237;28;20406;-67
2022/12/29 13:00:47;;;;;;;15.45;3.03;;;9.90;99.90;;;;;;4967337;28;20133;-68
2022/12/29 13:03:46;;;;;;;15.77;3.63;;;9.90;99.90;;;;;;4969002;28;20723;-66
2022/12/29 13:06:37;;;;;;;12.98;3.08;;;10.00;99.90;;;;;;4969028;28;20050;-66
2022/12/29 13:09:19;;;;;;;9.80;2.58;;;10.10;99.90;;;;;;4968244;28;20524;-66
2022/12/29 13:12:04;;;;;;;5.15;1.52;;;10.10;99.90;;;;;;4966838;28;20102;-68
2022/12/29 13:14:39;;;;;;;12.20;1.98;;;10.10;99.90;;;;;;4968332;28;20105;-67
2022/12/29 13:17:32;;;;;;;10.57;2.30;;;10.00;99.90;;;;;;4967323;28;20055;-67
2022/12/29 13:20:23;;;;;;;11.27;2.65;;;9.90;99.90;;;;;;4968849;28;20062;-66
2022/12/29 13:22:54;;;;;;;15.95;2.28;;;9.80;99.90;;;;;;4976050;28;20494;-66
2022/12/29 13:25:23;;;;;;;13.98;2.47;;;9.80;99.90;;;;;;4966344;28;20039;-67
2022/12/29 13:28:14;;;;;;;16.73;2.60;;;9.70;99.90;;;;;;4967247;28;20093;-67
2022/12/29 13:30:55;;;;;;;13.30;2.40;;;9.60;99.90;;;;;;4966763;28;20042;-66
2022/12/29 13:33:45;;;;;;;11.50;2.33;;;9.60;99.90;;;;;;4968203;28;20410;-66
2022/12/29 13:36:30;;;;;;;13.68;2.63;;;9.60;99.90;;;;;;4968733;28;20057;-67
2022/12/29 13:39:12;;;;;;;13.18;2.03;;;9.50;99.90;;;;;;4967803;28;20047;-67
2022/12/29 13:41:50;;;;;;;11.25;2.25;;;9.50;99.90;;;;;;4967588;28;20398;-66
2022/12/29 13:44:42;;;;;;;13.30;2.13;;;9.40;99.90;;;;;;4967943;28;20444;-67
2022/12/29 13:47:39;;;;;;;12.43;2.47;;;9.40;99.90;;;;;;4983661;28;20093;-67